This is the latest recevied weather packets stored in our database for station/object K5GHS-1. If no packets are shown the sender has not sent any weather packets the latest 10 day(s).
| Time | Temp. | Humidity | Pressure | Rain* | Wind** | Luminosity | Snow |
|---|---|---|---|---|---|---|---|
| 1777845589 | 29.44° C | 29% | 1014.4 hPa | 0 mm | - | 457 W/m² | - |
| 1777845286 | 28.89° C | 31% | 1014.4 hPa | 0 mm | - | 463 W/m² | - |
| 1777844983 | 28.89° C | 32% | 1014.5 hPa | 0 mm | - | 483 W/m² | - |
| 1777844681 | 28.89° C | 31% | 1014.5 hPa | 0 mm | - | 465 W/m² | - |
| 1777844378 | 30° C | 30% | 1014.5 hPa | 0 mm | - | 82 W/m² | - |
| 1777844077 | 29.44° C | 31% | 1014.6 hPa | 0 mm | - | 506 W/m² | - |
| 1777843772 | 29.44° C | 31% | 1014.6 hPa | 0 mm | - | 494 W/m² | - |
| 1777843470 | 28.89° C | 31% | 1014.8 hPa | 0 mm | - | 478 W/m² | - |
| 1777843167 | 28.89° C | 32% | 1015 hPa | 0 mm | - | 490 W/m² | - |
| 1777842864 | 29.44° C | 31% | 1015 hPa | 0 mm | - | 505 W/m² | - |
| 1777842559 | 29.44° C | 31% | 1014.9 hPa | 0 mm | - | 522 W/m² | - |
| 1777842256 | 29.44° C | 30% | 1015.3 hPa | 0 mm | - | 509 W/m² | - |
| 1777841951 | 29.44° C | 31% | 1015.1 hPa | 0 mm | - | 517 W/m² | - |
| 1777841649 | 29.44° C | 32% | 1015.2 hPa | 0 mm | - | 560 W/m² | - |
| 1777841344 | 29.44° C | 31% | 1015.6 hPa | 0 mm | - | 615 W/m² | - |
| 1777841042 | 29.44° C | 33% | 1015.5 hPa | 0 mm | - | 419 W/m² | - |
| 1777840739 | 29.44° C | 31% | 1015.4 hPa | 0 mm | - | 606 W/m² | - |
| 1777840436 | 29.44° C | 32% | 1015.7 hPa | 0 mm | - | 592 W/m² | - |
| 1777840133 | 30° C | 30% | 1015.7 hPa | 0 mm | - | 593 W/m² | - |
| 1777839831 | 29.44° C | 32% | 1015.8 hPa | 0 mm | - | 600 W/m² | - |
| 1777839529 | 28.89° C | 30% | 1016.1 hPa | 0 mm | - | 608 W/m² | - |
| 1777839226 | 28.89° C | 31% | 1016.2 hPa | 0 mm | - | 631 W/m² | - |
| 1777838924 | 28.89° C | 31% | 1016.1 hPa | 0 mm | - | 639 W/m² | - |
| 1777838619 | 28.89° C | 30% | 1016.2 hPa | 0 mm | - | 642 W/m² | - |
| 1777838317 | 28.33° C | 31% | 1016.5 hPa | 0 mm | - | 649 W/m² | - |
* Rain latest hour (hover to see other rain measurements)
** Current wind speed in m/s (hover to see current wind gust speed)